Time;durP1;ratioP1;P1;durP2;ratioP2;P2;SDS_P1;SDS_P2;PMS_P1;PMS_P2;Temp;Humidity;BMP_temperature;BMP_pressure;BME280_temperature;BME280_humidity;BME280_pressure;Samples;Min_cycle;Max_cycle;Signal;HPM_P1;HPM_P2
2022/09/17 00:01:31;;;;;;;5.00;4.40;;;;;;;6.08;nan;96458.19;5005327;28;20220;-56
2022/09/17 00:04:03;;;;;;;5.27;4.90;;;;;;;6.03;nan;96463.16;5010837;28;20235;-59
2022/09/17 00:06:34;;;;;;;5.03;4.73;;;;;;;6.03;nan;96467.59;4974459;28;20208;-54
2022/09/17 00:09:03;;;;;;;4.63;4.33;;;;;;;5.96;nan;96470.06;5010567;28;20894;-57
2022/09/17 00:11:33;;;;;;;5.13;4.70;;;;;;;5.87;nan;96473.72;5008688;28;20211;-52
2022/09/17 00:14:03;;;;;;;5.00;4.60;;;;;;;5.82;nan;96465.53;4959653;28;20266;-56
2022/09/17 00:16:34;;;;;;;5.30;4.53;;;;;;;5.76;nan;96462.59;5008549;28;20242;-54
2022/09/17 00:19:04;;;;;;;5.53;4.50;;;;;;;5.73;nan;96464.75;5005406;28;20223;-54
2022/09/17 00:21:33;;;;;;;4.70;4.40;;;;;;;5.73;nan;96462.13;4994921;28;20216;-55
2022/09/17 00:24:03;;;;;;;5.27;4.73;;;;;;;5.78;nan;96459.81;4985157;28;20228;-55
2022/09/17 00:26:32;;;;;;;5.27;4.90;;;;;;;5.76;nan;96454.72;5009210;28;20208;-55
2022/09/17 00:29:01;;;;;;;5.07;4.57;;;;;;;5.68;nan;96459.16;4960029;28;20228;-55
2022/09/17 00:31:30;;;;;;;4.83;4.20;;;;;;;5.73;nan;96456.88;5009256;28;20719;-58
2022/09/17 00:34:00;;;;;;;4.50;4.20;;;;;;;5.69;nan;96458.22;5006464;28;20235;-56
2022/09/17 00:36:30;;;;;;;5.13;4.63;;;;;;;5.78;nan;96465.88;4991585;28;21791;-59
2022/09/17 00:38:59;;;;;;;4.70;4.30;;;;;;;5.76;nan;96467.84;4987577;28;20595;-59
2022/09/17 00:41:29;;;;;;;5.10;4.60;;;;;;;5.76;nan;96477.56;5009644;28;20972;-60
2022/09/17 00:43:59;;;;;;;5.00;4.60;;;;;;;5.77;nan;96493.16;4976374;28;20252;-59
2022/09/17 00:46:32;;;;;;;4.70;4.30;;;;;;;5.99;nan;96479.41;5000224;28;20237;-61
2022/09/17 00:49:02;;;;;;;4.80;4.50;;;;;;;6.10;nan;96484.34;5007304;28;20243;-58
2022/09/17 00:51:35;;;;;;;4.80;4.43;;;;;;;6.18;nan;96492.19;4993892;28;20222;-57
2022/09/17 00:54:07;;;;;;;5.43;4.83;;;;;;;6.26;nan;96487.84;4987042;28;20231;-56
2022/09/17 00:56:38;;;;;;;4.90;4.50;;;;;;;6.27;nan;96487.69;5011425;28;20200;-56
2022/09/17 00:59:08;;;;;;;4.40;4.20;;;;;;;6.32;nan;96493.25;5006926;28;20232;-55
2022/09/17 01:01:37;;;;;;;5.27;4.90;;;;;;;6.32;nan;96497.69;4962093;28;20216;-53
2022/09/17 01:04:06;;;;;;;5.70;5.20;;;;;;;6.32;nan;96493.25;5008423;28;20230;-55
2022/09/17 01:06:42;;;;;;;5.87;5.47;;;;;;;6.40;nan;96487.09;4954136;28;20220;-58
2022/09/17 01:09:22;;;;;;;6.13;5.57;;;;;;;6.38;nan;96486.44;4981281;28;20975;-58
2022/09/17 01:12:03;;;;;;;6.60;6.10;;;;;;;6.34;nan;96493.88;5006490;28;20215;-58
2022/09/17 01:14:44;;;;;;;7.67;6.87;;;;;;;6.34;nan;96491.25;5007640;28;20238;-58
2022/09/17 01:17:18;;;;;;;6.77;6.17;;;;;;;6.39;nan;96488.09;4959716;28;20281;-59
2022/09/17 01:20:15;;;;;;;6.63;5.93;;;;;;;6.43;nan;96499.09;4980196;28;20262;-56
2022/09/17 01:22:57;;;;;;;6.30;5.90;;;;;;;6.43;nan;96499.09;4986130;28;20236;-58
2022/09/17 01:25:31;;;;;;;7.87;7.10;;;;;;;6.45;nan;96505.84;4983250;28;20208;-56
2022/09/17 01:28:31;;;;;;;7.40;6.23;;;;;;;6.53;nan;96507.56;5008118;28;20213;-60
2022/09/17 01:31:04;;;;;;;7.40;6.77;;;;;;;6.63;nan;96500.28;5008188;28;20247;-59
2022/09/17 01:33:40;;;;;;;7.53;6.83;;;;;;;6.60;nan;96497.16;4955800;28;20235;-57
2022/09/17 01:36:17;;;;;;;7.30;6.70;;;;;;;6.61;nan;96502.25;4989551;28;20215;-56
2022/09/17 01:38:52;;;;;;;8.03;7.23;;;;;;;6.63;nan;96502.09;5003048;28;20795;-56
2022/09/17 01:41:29;;;;;;;7.20;6.60;;;;;;;6.69;nan;96501.38;4984149;28;21678;-57
2022/09/17 01:44:03;;;;;;;7.47;6.77;;;;;;;6.72;nan;96503.66;5010591;28;20232;-56
2022/09/17 01:46:35;;;;;;;7.63;7.03;;;;;;;6.68;nan;96502.38;5009277;28;20538;-56
2022/09/17 01:49:05;;;;;;;7.43;6.63;;;;;;;6.61;nan;96485.66;4966334;28;20212;-57
2022/09/17 01:51:38;;;;;;;7.33;6.73;;;;;;;6.70;nan;96499.56;4993164;28;20700;-58
2022/09/17 01:54:10;;;;;;;7.27;6.70;;;;;;;6.73;nan;96496.59;5013911;28;20238;-56
2022/09/17 01:56:40;;;;;;;7.20;6.70;;;;;;;6.68;nan;96489.22;4989575;28;20305;-60
2022/09/17 01:59:15;;;;;;;7.73;7.00;;;;;;;6.59;nan;96492.91;5013995;28;20599;-52
2022/09/17 02:01:47;;;;;;;7.27;6.73;;;;;;;6.49;nan;96487.88;5012377;28;20214;-54
2022/09/17 02:04:19;;;;;;;7.10;6.33;;;;;;;6.49;nan;96493.97;4961211;28;21118;-55
2022/09/17 02:06:52;;;;;;;7.33;6.63;;;;;;;6.41;nan;96493.19;5009676;28;20215;-55
2022/09/17 02:09:24;;;;;;;7.73;6.57;;;;;;;6.39;nan;96501.25;4988071;28;20212;-53
2022/09/17 02:11:55;;;;;;;7.07;6.40;;;;;;;6.19;nan;96474.56;5010745;28;20212;-56
2022/09/17 02:14:27;;;;;;;6.93;6.30;;;;;;;6.40;nan;96495.00;5014292;28;20228;-53
2022/09/17 02:17:02;;;;;;;7.03;6.13;;;;;;;6.48;nan;96497.59;4984148;28;20226;-57
2022/09/17 02:19:32;;;;;;;6.27;5.77;;;;;;;6.55;nan;96496.88;4965882;28;20227;-57
2022/09/17 02:22:04;;;;;;;6.43;5.90;;;;;;;6.61;nan;96496.97;5010109;28;20204;-55
2022/09/17 02:24:36;;;;;;;8.47;7.03;;;;;;;6.64;nan;96501.09;5013030;28;20228;-59
2022/09/17 02:27:08;;;;;;;5.43;5.03;;;;;;;6.74;nan;96498.22;5008871;28;20643;-53
2022/09/17 02:29:38;;;;;;;6.13;5.40;;;;;;;6.80;nan;96497.50;5015076;28;20209;-57
2022/09/17 02:32:08;;;;;;;6.67;5.13;;;;;;;6.82;nan;96492.88;4983992;28;20227;-52
2022/09/17 02:34:37;;;;;;;6.60;5.93;;;;;;;6.91;nan;96491.00;5014849;28;20763;-53
2022/09/17 02:37:06;;;;;;;6.07;5.07;;;;;;;6.89;nan;96488.53;4965469;28;20204;-57
2022/09/17 02:39:35;;;;;;;5.70;5.30;;;;;;;6.92;nan;96492.66;5014407;28;20223;-55
2022/09/17 02:42:07;;;;;;;6.47;6.03;;;;;;;6.98;nan;96483.19;5010493;28;20446;-56
2022/09/17 02:44:41;;;;;;;8.10;5.43;;;;;;;6.95;nan;96482.56;5013573;28;20225;-58
2022/09/17 02:48:07;;;;;;;5.87;5.37;;;;;;;6.99;nan;96482.19;4991944;28;20212;-55
2022/09/17 02:50:54;;;;;;;6.23;5.73;;;;;;;6.95;nan;96473.84;4846539;29;20220;-56
2022/09/17 02:53:32;;;;;;;9.37;6.10;;;;;;;6.91;nan;96477.84;4890182;29;20667;-56
2022/09/17 02:56:09;;;;;;;7.93;7.27;;;;;;;6.86;nan;96465.19;4889212;29;21147;-55
2022/09/17 02:58:41;;;;;;;8.07;7.37;;;;;;;6.88;nan;96465.03;4892697;29;20231;-57
2022/09/17 03:01:16;;;;;;;7.30;6.23;;;;;;;6.84;nan;96459.31;4869013;29;21600;-55
2022/09/17 03:03:49;;;;;;;7.60;6.20;;;;;;;6.81;nan;96459.66;4892759;29;20739;-54
2022/09/17 03:06:19;;;;;;;8.07;6.37;;;;;;;6.85;nan;96455.66;4845786;29;20822;-55
2022/09/17 03:08:48;;;;;;;5.97;5.43;;;;;;;6.89;nan;96461.41;4890279;29;21154;-55
2022/09/17 03:11:16;;;;;;;6.23;5.73;;;;;;;6.85;nan;96455.66;4890221;29;20254;-57
2022/09/17 03:13:45;;;;;;;6.53;5.77;;;;;;;6.89;nan;96451.69;4890689;29;20236;-55
2022/09/17 03:16:13;;;;;;;8.30;6.07;;;;;;;6.88;nan;96449.25;4869580;29;20739;-55
2022/09/17 03:18:42;;;;;;;6.77;6.20;;;;;;;6.96;nan;96451.78;4893505;29;20235;-56
2022/09/17 03:21:11;;;;;;;8.57;6.10;;;;;;;6.90;nan;96449.88;4860596;29;20295;-55
2022/09/17 03:23:41;;;;;;;6.43;5.80;;;;;;;6.93;nan;96452.94;4840180;29;20243;-54
2022/09/17 03:26:09;;;;;;;7.50;5.73;;;;;;;6.94;nan;96448.53;4985843;28;21437;-57
2022/09/17 03:28:38;;;;;;;6.83;6.03;;;;;;;6.88;nan;96446.59;5008205;28;20200;-57
2022/09/17 03:31:06;;;;;;;6.20;5.70;;;;;;;6.79;nan;96430.84;5010454;28;20804;-58
2022/09/17 03:33:35;;;;;;;7.53;5.73;;;;;;;6.88;nan;96443.97;4981898;28;20239;-54
2022/09/17 03:36:03;;;;;;;6.77;6.17;;;;;;;6.91;nan;96444.41;5010331;28;20215;-55
2022/09/17 03:38:33;;;;;;;7.90;6.40;;;;;;;6.92;nan;96443.41;4935476;28;20224;-57
2022/09/17 03:41:05;;;;;;;7.30;6.60;;;;;;;6.89;nan;96446.41;5008830;28;20220;-53
2022/09/17 03:43:34;;;;;;;7.40;5.37;;;;;;;6.87;nan;96448.41;5008103;28;20232;-56
2022/09/17 03:46:03;;;;;;;10.77;6.73;;;;;;;6.93;nan;96452.16;5010470;28;20208;-55
2022/09/17 03:48:35;;;;;;;6.77;6.23;;;;;;;6.94;nan;96443.25;4986525;28;20475;-56
2022/09/17 03:51:04;;;;;;;6.40;5.87;;;;;;;6.92;nan;96439.97;5011948;28;20204;-58
2022/09/17 03:53:33;;;;;;;6.93;6.23;;;;;;;6.85;nan;96437.22;4958744;28;20255;-55
2022/09/17 03:56:04;;;;;;;5.93;5.40;;;;;;;6.90;nan;96434.88;5009356;28;20212;-57
2022/09/17 03:58:33;;;;;;;7.60;6.07;;;;;;;6.91;nan;96433.88;5008980;28;20587;-56
2022/09/17 04:01:02;;;;;;;6.93;6.30;;;;;;;6.91;nan;96433.88;5011325;28;20204;-58
2022/09/17 04:03:31;;;;;;;7.23;6.60;;;;;;;6.93;nan;96431.09;4993249;28;20232;-56
2022/09/17 04:06:00;;;;;;;6.93;6.23;;;;;;;6.89;nan;96421.91;5000070;28;20211;-55
2022/09/17 04:08:29;;;;;;;6.93;6.43;;;;;;;6.91;nan;96417.28;4907295;28;20466;-58
2022/09/17 04:10:57;;;;;;;6.60;6.10;;;;;;;6.95;nan;96421.97;4955524;28;20776;-52
2022/09/17 04:13:27;;;;;;;9.23;6.00;;;;;;;6.94;nan;96417.72;4989906;28;20231;-52
2022/09/17 04:15:55;;;;;;;6.03;5.53;;;;;;;6.95;nan;96426.44;5006731;28;20923;-58
2022/09/17 04:18:24;;;;;;;9.57;6.07;;;;;;;6.95;nan;96421.97;4989081;28;20378;-58
2022/09/17 04:20:53;;;;;;;6.67;5.97;;;;;;;6.91;nan;96419.91;5008326;28;20228;-54
2022/09/17 04:23:21;;;;;;;7.40;6.68;;;;;;;6.95;nan;96432.53;5007414;28;20495;-56
2022/09/17 04:25:50;;;;;;;8.47;5.87;;;;;;;6.99;nan;96430.34;5008801;28;20761;-58
2022/09/17 04:28:18;;;;;;;8.87;5.97;;;;;;;6.95;nan;96432.53;4965098;28;20212;-59
2022/09/17 04:30:49;;;;;;;7.60;5.83;;;;;;;6.93;nan;96428.44;5007530;28;20660;-55
2022/09/17 04:33:18;;;;;;;8.73;6.40;;;;;;;6.97;nan;96431.53;4987870;28;20313;-55
2022/09/17 04:35:46;;;;;;;8.13;5.33;;;;;;;6.94;nan;96422.19;5007859;28;20212;-57
2022/09/17 04:38:17;;;;;;;6.73;5.43;;;;;;;6.89;nan;96420.06;5008098;28;20204;-57
2022/09/17 04:40:46;;;;;;;11.87;5.73;;;;;;;6.95;nan;96419.34;5004551;28;20220;-57
2022/09/17 04:43:14;;;;;;;9.33;5.13;;;;;;;6.94;nan;96412.44;4963231;28;20243;-57
2022/09/17 04:45:46;;;;;;;6.77;6.03;;;;;;;6.94;nan;96416.91;5000202;28;20270;-57
2022/09/17 04:48:16;;;;;;;6.80;5.40;;;;;;;6.97;nan;96415.72;4987962;28;20210;-55
2022/09/17 04:50:44;;;;;;;5.87;5.30;;;;;;;6.91;nan;96418.06;5001668;28;20204;-57
2022/09/17 04:53:13;;;;;;;9.97;5.30;;;;;;;6.93;nan;96416.09;5005728;28;20235;-55
2022/09/17 04:55:42;;;;;;;5.60;5.07;;;;;;;6.84;nan;96403.19;4969880;28;20301;-56
2022/09/17 04:58:11;;;;;;;7.97;6.33;;;;;;;6.75;nan;96391.91;4928165;28;20228;-55
2022/09/17 05:00:40;;;;;;;5.87;5.40;;;;;;;6.90;nan;96413.00;4974910;28;20236;-55
2022/09/17 05:03:09;;;;;;;7.57;6.13;;;;;;;6.92;nan;96417.09;4962472;28;21304;-57
2022/09/17 05:05:39;;;;;;;6.77;6.00;;;;;;;7.04;nan;96416.66;4994604;28;20461;-55
2022/09/17 05:08:08;;;;;;;7.37;5.30;;;;;;;7.03;nan;96423.72;5008088;28;20208;-54
2022/09/17 05:10:36;;;;;;;6.17;5.60;;;;;;;7.10;nan;96421.19;4992578;28;20204;-57
2022/09/17 05:13:05;;;;;;;6.63;5.17;;;;;;;7.00;nan;96413.56;4966262;28;20228;-56
2022/09/17 05:15:33;;;;;;;5.87;5.20;;;;;;;6.98;nan;96410.28;4990343;28;20587;-61
2022/09/17 05:18:02;;;;;;;5.77;5.03;;;;;;;6.92;nan;96422.34;5007580;28;20208;-57
2022/09/17 05:20:30;;;;;;;6.00;5.47;;;;;;;7.01;nan;96417.81;4993810;28;20253;-58
2022/09/17 05:23:00;;;;;;;5.83;5.17;;;;;;;6.95;nan;96421.97;5013197;28;20970;-56
2022/09/17 05:25:29;;;;;;;5.00;4.60;;;;;;;6.99;nan;96425.09;4996399;28;20205;-59
2022/09/17 05:28:00;;;;;;;6.00;4.97;;;;;;;7.05;nan;96434.91;5011095;28;20215;-56
2022/09/17 05:30:28;;;;;;;5.10;4.57;;;;;;;6.97;nan;96429.72;4964282;28;20220;-58
2022/09/17 05:33:01;;;;;;;10.97;5.47;;;;;;;7.13;nan;96428.75;5009287;28;20231;-58
2022/09/17 05:35:31;;;;;;;5.43;4.93;;;;;;;7.10;nan;96424.63;4972115;28;20215;-55
2022/09/17 05:38:02;;;;;;;6.37;4.67;;;;;;;7.18;nan;96429.00;5008986;28;20204;-55
2022/09/17 05:40:31;;;;;;;8.40;5.30;;;;;;;7.10;nan;96429.09;4993698;28;20239;-56
2022/09/17 05:43:00;;;;;;;8.07;5.60;;;;;;;7.08;nan;96433.75;4988312;28;20836;-56
2022/09/17 05:45:29;;;;;;;5.97;4.80;;;;;;;7.13;nan;96447.19;4967614;28;20223;-58
2022/09/17 05:47:57;;;;;;;13.03;4.67;;;;;;;7.22;nan;96454.00;5009939;28;20204;-55
2022/09/17 05:50:27;;;;;;;7.73;6.67;;;;;;;7.19;nan;96466.69;4999899;28;20204;-56
2022/09/17 05:52:55;;;;;;;4.37;4.07;;;;;;;7.18;nan;96480.88;5008505;28;20224;-58
2022/09/17 05:55:26;;;;;;;7.93;4.17;;;;;;;7.18;nan;96486.97;4995164;28;20255;-55
2022/09/17 05:57:54;;;;;;;5.07;4.23;;;;;;;7.30;nan;96489.16;5010744;28;20207;-54
2022/09/17 06:00:23;;;;;;;5.67;4.43;;;;;;;7.29;nan;96491.00;4966381;28;20235;-60
2022/09/17 06:02:55;;;;;;;4.57;4.00;;;;;;;7.40;nan;96497.66;5011652;28;20220;-57
2022/09/17 06:05:23;;;;;;;4.60;4.30;;;;;;;7.43;nan;96512.25;4992810;28;21082;-60
2022/09/17 06:07:51;;;;;;;5.63;3.97;;;;;;;7.32;nan;96502.97;5011610;28;20408;-58
2022/09/17 06:10:20;;;;;;;5.90;4.33;;;;;;;7.37;nan;96519.91;5010600;28;21093;-56
2022/09/17 06:12:56;;;;;;;6.27;4.13;;;;;;;7.37;nan;96524.34;4995997;28;20224;-55
2022/09/17 06:15:24;;;;;;;5.00;3.97;;;;;;;7.48;nan;96537.09;5013029;28;20211;-54
2022/09/17 06:17:52;;;;;;;5.13;4.40;;;;;;;7.49;nan;96541.38;4964223;28;20220;-58
2022/09/17 06:20:21;;;;;;;9.50;5.03;;;;;;;7.46;nan;96549.63;4943651;28;21004;-53
2022/09/17 06:22:49;;;;;;;6.00;4.60;;;;;;;7.41;nan;96557.25;4993949;28;20255;-57
2022/09/17 06:25:18;;;;;;;5.23;4.30;;;;;;;7.35;nan;96563.22;4997546;28;20395;-56
2022/09/17 06:27:46;;;;;;;5.20;4.47;;;;;;;7.40;nan;96574.06;4995276;28;20209;-58
2022/09/17 06:30:15;;;;;;;7.60;4.47;;;;;;;7.38;nan;96571.59;5009593;28;20661;-57
2022/09/17 06:32:44;;;;;;;6.10;4.20;;;;;;;7.48;nan;96567.88;5009569;28;20220;-56
2022/09/17 06:35:12;;;;;;;4.43;3.97;;;;;;;7.50;nan;96564.09;4958822;28;20224;-57
2022/09/17 06:37:40;;;;;;;5.10;4.60;;;;;;;7.51;nan;96557.81;5012644;28;20251;-58
2022/09/17 06:40:10;;;;;;;5.10;4.77;;;;;;;7.64;nan;96554.56;5005073;28;20961;-57
2022/09/17 06:42:39;;;;;;;5.67;4.60;;;;;;;7.65;nan;96550.09;5008875;28;20297;-58
2022/09/17 06:45:08;;;;;;;5.30;4.90;;;;;;;7.68;nan;96549.72;4988952;28;20672;-55
2022/09/17 06:47:42;;;;;;;5.07;4.63;;;;;;;7.60;nan;96540.09;5013720;28;20199;-59
2022/09/17 06:50:11;;;;;;;4.60;4.10;;;;;;;7.68;nan;96537.38;4960828;28;20227;-55
2022/09/17 06:52:39;;;;;;;5.73;3.70;;;;;;;7.65;nan;96539.53;5013102;28;20224;-59
2022/09/17 06:55:08;;;;;;;8.10;3.70;;;;;;;7.54;nan;96532.91;5006509;28;20212;-57
2022/09/17 06:57:37;;;;;;;4.77;4.10;;;;;;;7.53;nan;96513.63;5011357;28;20212;-56
2022/09/17 07:00:07;;;;;;;4.90;3.70;;;;;;;7.63;nan;96533.63;4992744;28;20212;-54
2022/09/17 07:02:35;;;;;;;4.70;3.37;;;;;;;7.66;nan;96517.44;5010528;28;20204;-55
2022/09/17 07:05:06;;;;;;;4.20;3.40;;;;;;;7.48;nan;96539.72;4964919;28;20675;-57
2022/09/17 07:07:35;;;;;;;3.63;3.33;;;;;;;7.43;nan;96534.19;5008898;28;20923;-58
2022/09/17 07:10:03;;;;;;;5.30;3.23;;;;;;;7.45;nan;96547.16;5010664;28;20215;-57
2022/09/17 07:12:32;;;;;;;4.20;3.80;;;;;;;7.41;nan;96540.63;4998488;28;20204;-51
2022/09/17 07:15:00;;;;;;;3.30;3.10;;;;;;;7.61;nan;96538.28;4993377;28;20216;-57
2022/09/17 07:17:29;;;;;;;3.10;2.80;;;;;;;7.66;nan;96536.75;5009987;28;20203;-54
2022/09/17 07:19:58;;;;;;;3.50;3.20;;;;;;;7.81;nan;96539.38;4960385;28;20223;-56
2022/09/17 07:22:27;;;;;;;3.23;3.00;;;;;;;7.88;nan;96538.66;5006670;28;20219;-56
2022/09/17 07:24:56;;;;;;;4.03;2.90;;;;;;;7.80;nan;96540.38;5012243;28;20210;-59
2022/09/17 07:27:24;;;;;;;2.97;2.77;;;;;;;7.89;nan;96522.63;4996623;28;20974;-59
2022/09/17 07:29:52;;;;;;;3.70;2.57;;;;;;;8.10;nan;96536.91;5011720;28;20572;-58
2022/09/17 07:32:21;;;;;;;4.60;2.60;;;;;;;8.00;nan;96531.09;4988409;28;20232;-54
2022/09/17 07:34:49;;;;;;;2.57;2.10;;;;;;;8.02;nan;96534.38;4965563;28;20220;-58
2022/09/17 07:37:19;;;;;;;4.30;2.47;;;;;;;8.00;nan;96529.25;5005741;28;20258;-60
2022/09/17 07:39:50;;;;;;;3.93;3.63;;;;;;;8.19;nan;96538.44;5009728;28;20323;-57
2022/09/17 07:42:19;;;;;;;4.40;2.47;;;;;;;8.17;nan;96550.19;4993485;28;20223;-55
2022/09/17 07:44:47;;;;;;;2.63;2.43;;;;;;;8.20;nan;96545.34;5011764;28;20537;-55
2022/09/17 07:47:15;;;;;;;3.10;2.23;;;;;;;8.06;nan;96540.91;4986684;28;20244;-58
2022/09/17 07:49:44;;;;;;;3.30;2.37;;;;;;;8.05;nan;96545.34;5011758;28;20216;-55
2022/09/17 07:52:12;;;;;;;2.57;2.37;;;;;;;7.97;nan;96535.75;4959490;28;20217;-57
2022/09/17 07:54:41;;;;;;;2.57;2.37;;;;;;;8.04;nan;96551.63;5010056;28;20220;-59
2022/09/17 07:57:11;;;;;;;3.73;3.30;;;;;;;8.10;nan;96552.72;4992104;28;20212;-55
2022/09/17 07:59:39;;;;;;;3.37;2.97;;;;;;;8.19;nan;96548.19;5011204;28;20215;-60
2022/09/17 08:02:11;;;;;;;4.07;2.63;;;;;;;8.15;nan;96553.00;4994488;28;20603;-57
2022/09/17 08:04:42;;;;;;;3.77;2.30;;;;;;;8.13;nan;96554.16;5010855;28;20226;-57
2022/09/17 08:07:12;;;;;;;2.73;2.40;;;;;;;8.03;nan;96559.75;4958811;28;20228;-56
2022/09/17 08:09:41;;;;;;;2.87;2.20;;;;;;;8.01;nan;96551.19;5010947;28;20218;-58
2022/09/17 08:12:10;;;;;;;3.63;1.97;;;;;;;7.69;nan;96551.38;4995760;28;20659;-55
2022/09/17 08:14:39;;;;;;;1.90;1.80;;;;;;;7.75;nan;96560.38;5010216;28;20339;-58
2022/09/17 08:17:08;;;;;;;2.27;2.07;;;;;;;7.75;nan;96560.38;4997909;28;20212;-57
2022/09/17 08:19:37;;;;;;;2.10;2.00;;;;;;;7.81;nan;96557.84;5005223;28;20214;-56
2022/09/17 08:22:05;;;;;;;1.80;1.70;;;;;;;7.83;nan;96562.94;4964528;28;20246;-56
2022/09/17 08:24:33;;;;;;;2.03;1.40;;;;;;;7.77;nan;96568.94;5006258;28;20220;-56
2022/09/17 08:27:02;;;;;;;1.87;1.77;;;;;;;7.68;nan;96563.75;4953806;28;20667;-57
2022/09/17 08:29:32;;;;;;;1.50;1.40;;;;;;;7.81;nan;96570.19;5007277;28;20887;-57
2022/09/17 08:32:03;;;;;;;1.97;1.87;;;;;;;7.96;nan;96570.22;5016409;28;20244;-55
2022/09/17 08:34:31;;;;;;;1.23;1.23;;;;;;;7.86;nan;96559.91;5017880;28;20220;-58
2022/09/17 08:36:59;;;;;;;1.70;1.60;;;;;;;8.04;nan;96564.81;5015309;28;20215;-58
2022/09/17 08:39:28;;;;;;;1.17;1.17;;;;;;;7.87;nan;96558.91;5013629;28;20544;-56
2022/09/17 08:42:04;;;;;;;1.50;1.40;;;;;;;8.04;nan;96564.81;5017747;28;20255;-58
2022/09/17 08:44:40;;;;;;;1.50;1.40;;;;;;;8.11;nan;96568.38;4962378;28;20227;-54
2022/09/17 08:47:14;;;;;;;1.67;1.57;;;;;;;8.26;nan;96564.91;5008451;28;20200;-55
2022/09/17 08:49:49;;;;;;;1.10;1.10;;;;;;;8.17;nan;96564.19;5010533;28;20219;-54
2022/09/17 08:52:44;;;;;;;1.17;1.10;;;;;;;8.18;nan;96565.81;5008736;28;20584;-57
2022/09/17 08:55:23;;;;;;;1.90;1.37;;;;;;;8.11;nan;96565.72;5009277;28;20204;-59
2022/09/17 08:58:00;;;;;;;1.80;1.30;;;;;;;8.06;nan;96572.56;5012797;28;20203;-54
2022/09/17 09:00:32;;;;;;;1.10;1.10;;;;;;;8.17;nan;96581.84;4969991;28;20218;-53
2022/09/17 09:03:13;;;;;;;1.03;1.03;;;;;;;8.19;nan;96583.28;5007871;28;21058;-56
2022/09/17 09:05:45;;;;;;;0.90;0.90;;;;;;;8.15;nan;96582.03;5011530;28;20785;-55
2022/09/17 09:08:17;;;;;;;1.00;1.00;;;;;;;7.99;nan;96580.38;5013017;28;20819;-59
2022/09/17 09:10:49;;;;;;;1.20;1.10;;;;;;;7.92;nan;96579.50;5009586;28;20211;-55
2022/09/17 09:13:20;;;;;;;2.10;1.07;;;;;;;7.91;nan;96583.94;5010953;28;20220;-58
2022/09/17 09:15:54;;;;;;;1.20;1.20;;;;;;;7.79;nan;96585.38;4964074;28;20216;-53
2022/09/17 09:18:24;;;;;;;4.17;3.70;;;;;;;7.75;nan;96590.19;5011223;28;20235;-56
2022/09/17 09:20:54;;;;;;;1.60;1.50;;;;;;;7.70;nan;96589.91;5011434;28;20215;-53
2022/09/17 09:23:31;;;;;;;2.37;2.27;;;;;;;7.74;nan;96585.91;5011670;28;20697;-53
2022/09/17 09:26:05;;;;;;;1.43;1.43;;;;;;;7.75;nan;96578.84;5012127;28;20208;-57
2022/09/17 09:28:43;;;;;;;1.60;1.60;;;;;;;7.64;nan;96590.63;5014265;28;20204;-52
2022/09/17 09:31:25;;;;;;;1.53;1.53;;;;;;;7.53;nan;96563.72;4968574;28;20971;-54
2022/09/17 09:33:53;;;;;;;1.23;1.23;;;;;;;7.77;nan;96590.84;5010245;28;20228;-52
2022/09/17 09:36:22;;;;;;;1.77;1.50;;;;;;;7.82;nan;96595.56;5012784;28;20210;-54
2022/09/17 09:38:55;;;;;;;2.37;2.10;;;;;;;7.94;nan;96577.47;5010841;28;20231;-55
2022/09/17 09:41:27;;;;;;;3.10;2.70;;;;;;;8.33;nan;96600.13;5012772;28;20822;-59
2022/09/17 09:44:01;;;;;;;1.97;1.87;;;;;;;8.59;nan;96590.91;5006686;28;20228;-55
2022/09/17 09:46:50;;;;;;;2.23;2.13;;;;;;;8.39;nan;96594.09;4964463;28;20215;-55
2022/09/17 09:49:26;;;;;;;3.23;1.70;;;;;;;8.19;nan;96600.97;5012607;28;20188;-54
2022/09/17 09:52:06;;;;;;;2.17;2.07;;;;;;;8.13;nan;96597.22;5008690;28;20208;-56
2022/09/17 09:54:46;;;;;;;2.73;2.53;;;;;;;8.11;nan;96602.66;5013835;28;20220;-54
2022/09/17 09:57:17;;;;;;;2.33;2.13;;;;;;;8.19;nan;96599.13;5010796;28;20211;-59
2022/09/17 09:59:46;;;;;;;3.00;2.30;;;;;;;8.28;nan;96601.66;4984439;28;20212;-56
2022/09/17 10:02:16;;;;;;;2.80;2.37;;;;;;;8.20;nan;96602.59;5000386;28;20270;-58
2022/09/17 10:04:45;;;;;;;2.23;2.00;;;;;;;8.20;nan;96594.69;5009196;28;20200;-54
2022/09/17 10:07:17;;;;;;;3.07;2.90;;;;;;;8.28;nan;96597.22;5011611;28;20213;-57
2022/09/17 10:09:46;;;;;;;2.70;2.37;;;;;;;8.26;nan;96604.50;5008856;28;20204;-56
2022/09/17 10:12:17;;;;;;;3.27;2.90;;;;;;;8.29;nan;96604.13;5012963;28;20208;-57
2022/09/17 10:14:46;;;;;;;2.80;2.60;;;;;;;8.56;nan;96606.28;4983249;28;20204;-53
2022/09/17 10:17:19;;;;;;;4.10;3.07;;;;;;;8.67;nan;96598.72;5000566;28;20212;-56
2022/09/17 10:20:12;;;;;;;3.03;2.83;;;;;;;9.16;nan;96595.56;5008114;28;20205;-57
2022/09/17 10:22:41;;;;;;;3.53;2.83;;;;;;;9.33;nan;96598.75;5007318;28;20264;-54
2022/09/17 10:25:23;;;;;;;5.50;3.07;;;;;;;9.25;nan;96603.13;5009832;28;20204;-55
2022/09/17 10:27:52;;;;;;;3.20;3.00;;;;;;;9.18;nan;96598.81;5005038;28;20216;-55
2022/09/17 10:30:21;;;;;;;4.70;3.43;;;;;;;9.21;nan;96593.16;5012391;28;20212;-59
2022/09/17 10:33:16;;;;;;;3.83;2.80;;;;;;;9.33;nan;96594.25;4963478;28;21183;-56
2022/09/17 10:35:56;;;;;;;5.10;2.90;;;;;;;9.23;nan;96597.22;5009026;28;20215;-53
2022/09/17 10:38:29;;;;;;;4.00;3.10;;;;;;;9.24;nan;96601.50;5011423;28;20208;-54
2022/09/17 10:41:12;;;;;;;3.47;2.77;;;;;;;9.11;nan;96604.88;5006510;28;20230;-52
2022/09/17 10:43:41;;;;;;;5.07;3.40;;;;;;;9.19;nan;96609.19;5009481;28;20224;-56
2022/09/17 10:46:12;;;;;;;4.53;3.83;;;;;;;8.92;nan;96611.59;4935314;28;20208;-54
2022/09/17 10:48:45;;;;;;;4.97;3.03;;;;;;;9.10;nan;96611.16;5011949;28;20209;-59
2022/09/17 10:51:21;;;;;;;3.87;3.57;;;;;;;9.11;nan;96598.75;4991516;28;20212;-54
2022/09/17 10:54:30;;;;;;;5.97;3.33;;;;;;;9.39;nan;96603.28;5012370;28;20227;-58
2022/09/17 10:56:59;;;;;;;3.13;2.93;;;;;;;9.61;nan;96609.34;4952327;28;20206;-55
2022/09/17 11:00:09;;;;;;;7.00;4.03;;;;;;;9.31;nan;96590.19;4895688;28;20244;-57
2022/09/17 11:03:08;;;;;;;4.43;3.20;;;;;;;9.60;nan;96602.41;4916686;28;20230;-53
2022/09/17 11:05:53;;;;;;;5.17;3.20;;;;;;;9.67;nan;96599.84;4933905;28;20237;-55
2022/09/17 11:08:24;;;;;;;5.53;3.90;;;;;;;9.79;nan;96582.41;4932648;28;20210;-58
2022/09/17 11:11:00;;;;;;;5.27;2.93;;;;;;;10.04;nan;96592.53;4950518;28;20194;-52
2022/09/17 11:13:36;;;;;;;5.07;3.23;;;;;;;10.54;nan;96588.91;4947762;28;20222;-55
2022/09/17 11:16:19;;;;;;;6.80;3.50;;;;;;;10.59;nan;96586.50;4904802;28;20705;-56
2022/09/17 11:18:52;;;;;;;7.93;3.63;;;;;;;10.92;nan;96580.47;4933676;28;20276;-58
2022/09/17 11:21:36;;;;;;;4.33;2.90;;;;;;;10.93;nan;96579.44;4929526;28;20214;-56
2022/09/17 11:24:28;;;;;;;8.47;3.50;;;;;;;10.85;nan;96566.38;4933160;28;20233;-55
2022/09/17 11:27:03;;;;;;;6.10;3.23;;;;;;;10.56;nan;96581.59;4945084;28;20215;-57
2022/09/17 11:29:44;;;;;;;6.73;3.13;;;;;;;10.47;nan;96575.66;4946720;28;20212;-58
2022/09/17 11:32:26;;;;;;;5.37;3.07;;;;;;;10.47;nan;96570.34;4958957;28;20235;-56
2022/09/17 11:34:59;;;;;;;8.30;3.27;;;;;;;10.63;nan;96576.31;4992885;28;20318;-55
2022/09/17 11:37:32;;;;;;;6.30;2.70;;;;;;;10.38;nan;96571.50;4992059;28;20216;-56
2022/09/17 11:40:03;;;;;;;4.27;3.17;;;;;;;10.37;nan;96577.81;5009613;28;20259;-57
2022/09/17 11:42:34;;;;;;;6.30;3.40;;;;;;;10.18;nan;96579.38;5006928;28;20258;-54
2022/09/17 11:45:05;;;;;;;3.13;2.80;;;;;;;10.01;nan;96573.56;4997443;28;20224;-54
2022/09/17 11:47:36;;;;;;;9.07;3.60;;;;;;;9.93;nan;96575.38;4986833;28;20249;-53
2022/09/17 11:50:11;;;;;;;8.60;3.27;;;;;;;10.05;nan;96574.81;4993367;28;20217;-54
2022/09/17 11:52:44;;;;;;;4.27;2.87;;;;;;;10.36;nan;96565.59;5007048;28;20866;-57
2022/09/17 11:55:19;;;;;;;5.07;3.00;;;;;;;10.80;nan;96551.09;4990851;28;20208;-55
2022/09/17 11:57:49;;;;;;;5.73;3.27;;;;;;;11.24;nan;96551.56;5010112;28;20790;-56
2022/09/17 12:00:19;;;;;;;5.47;3.53;;;;;;;11.81;nan;96547.63;5006668;28;20211;-56
2022/09/17 12:02:52;;;;;;;5.83;2.83;;;;;;;12.46;nan;96541.50;4964088;28;20244;-56
2022/09/17 12:05:22;;;;;;;7.07;3.60;;;;;;;12.16;nan;96548.16;4986223;28;20200;-57
2022/09/17 12:07:56;;;;;;;7.30;4.00;;;;;;;12.45;nan;96545.19;5009108;28;20217;-57
2022/09/17 12:10:42;;;;;;;8.33;3.00;;;;;;;12.77;nan;96531.94;4991381;28;20577;-56
2022/09/17 12:13:19;;;;;;;4.13;3.47;;;;;;;12.80;nan;96522.72;5006735;28;20219;-54
2022/09/17 12:15:50;;;;;;;3.70;2.57;;;;;;;12.72;nan;96518.47;5007648;28;20216;-57
2022/09/17 12:18:34;;;;;;;4.90;3.00;;;;;;;12.66;nan;96524.66;4961953;28;20212;-59
2022/09/17 12:21:05;;;;;;;3.60;2.47;;;;;;;12.61;nan;96524.47;5010309;28;20223;-56
2022/09/17 12:23:39;;;;;;;5.67;2.90;;;;;;;12.38;nan;96531.94;4998892;28;20235;-61